sensor_id;sensor_type;location;lat;lon;timestamp;temperature;humidity
10512;DHT22;5304;48.604;2.096;2024-02-21T00:01:22;6.50;99.90
10512;DHT22;5304;48.604;2.096;2024-02-21T00:04:07;6.40;99.90
10512;DHT22;5304;48.604;2.096;2024-02-21T00:06:51;6.50;99.90
10512;DHT22;5304;48.604;2.096;2024-02-21T00:09:35;6.50;99.90
10512;DHT22;5304;48.604;2.096;2024-02-21T00:12:19;6.50;99.90
10512;DHT22;5304;48.604;2.096;2024-02-21T00:15:04;6.60;99.90
10512;DHT22;5304;48.604;2.096;2024-02-21T00:17:49;6.60;99.90
10512;DHT22;5304;48.604;2.096;2024-02-21T00:20:33;6.60;99.90
10512;DHT22;5304;48.604;2.096;2024-02-21T00:23:17;6.70;99.90
10512;DHT22;5304;48.604;2.096;2024-02-21T00:26:02;6.70;99.90
10512;DHT22;5304;48.604;2.096;2024-02-21T00:28:46;6.80;99.90
10512;DHT22;5304;48.604;2.096;2024-02-21T00:31:30;6.90;99.90
10512;DHT22;5304;48.604;2.096;2024-02-21T00:34:15;6.80;99.90
10512;DHT22;5304;48.604;2.096;2024-02-21T00:36:59;6.80;99.90
10512;DHT22;5304;48.604;2.096;2024-02-21T00:39:43;6.80;99.90
10512;DHT22;5304;48.604;2.096;2024-02-21T00:42:28;6.90;99.90
10512;DHT22;5304;48.604;2.096;2024-02-21T00:45:12;6.90;99.90
10512;DHT22;5304;48.604;2.096;2024-02-21T00:47:57;6.90;99.90
10512;DHT22;5304;48.604;2.096;2024-02-21T00:50:41;6.90;99.90
10512;DHT22;5304;48.604;2.096;2024-02-21T00:53:26;6.90;99.90
10512;DHT22;5304;48.604;2.096;2024-02-21T00:56:10;6.80;99.90
10512;DHT22;5304;48.604;2.096;2024-02-21T00:58:54;6.80;99.90
10512;DHT22;5304;48.604;2.096;2024-02-21T01:01:38;6.80;99.90
10512;DHT22;5304;48.604;2.096;2024-02-21T01:04:25;6.70;99.90
10512;DHT22;5304;48.604;2.096;2024-02-21T01:07:10;6.80;99.90
10512;DHT22;5304;48.604;2.096;2024-02-21T01:09:54;6.80;99.90
10512;DHT22;5304;48.604;2.096;2024-02-21T01:12:38;6.80;99.90
10512;DHT22;5304;48.604;2.096;2024-02-21T01:15:22;6.70;99.90
10512;DHT22;5304;48.604;2.096;2024-02-21T01:18:07;6.70;99.90
10512;DHT22;5304;48.604;2.096;2024-02-21T01:20:51;6.60;99.90
10512;DHT22;5304;48.604;2.096;2024-02-21T01:23:36;6.50;99.90
10512;DHT22;5304;48.604;2.096;2024-02-21T01:26:21;6.50;99.90
10512;DHT22;5304;48.604;2.096;2024-02-21T01:29:05;6.50;99.90
10512;DHT22;5304;48.604;2.096;2024-02-21T01:31:49;6.50;99.90
10512;DHT22;5304;48.604;2.096;2024-02-21T01:34:33;6.40;99.90
10512;DHT22;5304;48.604;2.096;2024-02-21T01:37:18;6.30;99.90
10512;DHT22;5304;48.604;2.096;2024-02-21T01:40:02;6.40;99.90
10512;DHT22;5304;48.604;2.096;2024-02-21T01:42:47;6.40;99.90
10512;DHT22;5304;48.604;2.096;2024-02-21T01:45:32;6.30;99.90
10512;DHT22;5304;48.604;2.096;2024-02-21T01:48:18;6.30;99.90
10512;DHT22;5304;48.604;2.096;2024-02-21T01:51:04;6.30;99.90
10512;DHT22;5304;48.604;2.096;2024-02-21T01:53:50;6.30;99.90
10512;DHT22;5304;48.604;2.096;2024-02-21T01:56:35;6.40;99.90
10512;DHT22;5304;48.604;2.096;2024-02-21T01:59:19;6.40;99.90
10512;DHT22;5304;48.604;2.096;2024-02-21T02:02:05;6.40;99.90
10512;DHT22;5304;48.604;2.096;2024-02-21T02:04:49;6.40;99.90
10512;DHT22;5304;48.604;2.096;2024-02-21T02:07:34;6.50;99.90
10512;DHT22;5304;48.604;2.096;2024-02-21T02:10:19;6.50;99.90
10512;DHT22;5304;48.604;2.096;2024-02-21T02:13:03;6.60;99.90
10512;DHT22;5304;48.604;2.096;2024-02-21T02:15:48;6.60;99.90
10512;DHT22;5304;48.604;2.096;2024-02-21T02:18:32;6.60;99.90
10512;DHT22;5304;48.604;2.096;2024-02-21T02:21:31;6.70;99.90
10512;DHT22;5304;48.604;2.096;2024-02-21T02:24:16;6.60;99.90
10512;DHT22;5304;48.604;2.096;2024-02-21T02:27:01;6.70;99.90
10512;DHT22;5304;48.604;2.096;2024-02-21T02:29:46;6.70;99.90
10512;DHT22;5304;48.604;2.096;2024-02-21T02:32:30;6.80;99.90
10512;DHT22;5304;48.604;2.096;2024-02-21T02:35:14;6.70;99.90
10512;DHT22;5304;48.604;2.096;2024-02-21T02:37:59;6.70;99.90
10512;DHT22;5304;48.604;2.096;2024-02-21T02:40:43;6.80;99.90
10512;DHT22;5304;48.604;2.096;2024-02-21T02:43:27;6.80;99.90
10512;DHT22;5304;48.604;2.096;2024-02-21T02:46:11;6.70;99.90
10512;DHT22;5304;48.604;2.096;2024-02-21T02:48:55;6.70;99.90
10512;DHT22;5304;48.604;2.096;2024-02-21T02:51:43;6.60;99.90
10512;DHT22;5304;48.604;2.096;2024-02-21T02:54:27;6.70;99.90
10512;DHT22;5304;48.604;2.096;2024-02-21T02:57:11;6.70;99.90
10512;DHT22;5304;48.604;2.096;2024-02-21T02:59:56;6.80;99.90
10512;DHT22;5304;48.604;2.096;2024-02-21T03:02:42;6.80;99.90
10512;DHT22;5304;48.604;2.096;2024-02-21T03:05:27;6.80;99.90
10512;DHT22;5304;48.604;2.096;2024-02-21T03:08:11;6.70;99.90
10512;DHT22;5304;48.604;2.096;2024-02-21T03:10:55;6.70;99.90
10512;DHT22;5304;48.604;2.096;2024-02-21T03:13:40;6.80;99.90
10512;DHT22;5304;48.604;2.096;2024-02-21T03:16:24;6.70;99.90
10512;DHT22;5304;48.604;2.096;2024-02-21T03:19:09;6.80;99.90
10512;DHT22;5304;48.604;2.096;2024-02-21T03:21:54;6.80;99.90
10512;DHT22;5304;48.604;2.096;2024-02-21T03:24:38;6.80;99.90
10512;DHT22;5304;48.604;2.096;2024-02-21T03:27:22;6.80;99.90
10512;DHT22;5304;48.604;2.096;2024-02-21T03:30:07;6.80;99.90
10512;DHT22;5304;48.604;2.096;2024-02-21T03:32:52;6.70;99.90
10512;DHT22;5304;48.604;2.096;2024-02-21T03:35:36;6.80;99.90
10512;DHT22;5304;48.604;2.096;2024-02-21T03:38:21;6.80;99.90
10512;DHT22;5304;48.604;2.096;2024-02-21T03:41:05;6.90;99.90
10512;DHT22;5304;48.604;2.096;2024-02-21T03:43:49;6.90;99.90
10512;DHT22;5304;48.604;2.096;2024-02-21T03:46:34;6.90;99.90
10512;DHT22;5304;48.604;2.096;2024-02-21T03:49:18;6.90;99.90
10512;DHT22;5304;48.604;2.096;2024-02-21T03:52:03;6.90;99.90
10512;DHT22;5304;48.604;2.096;2024-02-21T03:54:47;6.90;99.90
10512;DHT22;5304;48.604;2.096;2024-02-21T03:57:31;6.90;99.90
10512;DHT22;5304;48.604;2.096;2024-02-21T04:00:15;6.90;99.90
10512;DHT22;5304;48.604;2.096;2024-02-21T04:03:00;6.80;99.90
10512;DHT22;5304;48.604;2.096;2024-02-21T04:05:44;6.90;99.90
10512;DHT22;5304;48.604;2.096;2024-02-21T04:08:28;6.90;99.90
10512;DHT22;5304;48.604;2.096;2024-02-21T04:11:12;6.80;99.90
10512;DHT22;5304;48.604;2.096;2024-02-21T04:13:57;6.80;99.90
10512;DHT22;5304;48.604;2.096;2024-02-21T04:16:41;6.70;99.90
10512;DHT22;5304;48.604;2.096;2024-02-21T04:19:26;6.70;99.90
10512;DHT22;5304;48.604;2.096;2024-02-21T04:22:10;6.70;99.90
10512;DHT22;5304;48.604;2.096;2024-02-21T04:24:54;6.70;99.90
10512;DHT22;5304;48.604;2.096;2024-02-21T04:27:39;6.70;99.90
10512;DHT22;5304;48.604;2.096;2024-02-21T04:30:23;6.70;99.90
10512;DHT22;5304;48.604;2.096;2024-02-21T04:33:07;6.70;99.90
10512;DHT22;5304;48.604;2.096;2024-02-21T04:35:51;6.80;99.90
10512;DHT22;5304;48.604;2.096;2024-02-21T04:38:38;6.80;99.90
10512;DHT22;5304;48.604;2.096;2024-02-21T04:41:23;6.70;99.90
10512;DHT22;5304;48.604;2.096;2024-02-21T04:44:07;6.80;99.90
10512;DHT22;5304;48.604;2.096;2024-02-21T04:46:52;6.80;99.90
10512;DHT22;5304;48.604;2.096;2024-02-21T04:49:36;6.70;99.90
10512;DHT22;5304;48.604;2.096;2024-02-21T04:52:20;6.70;99.90
10512;DHT22;5304;48.604;2.096;2024-02-21T04:55:05;6.70;99.90
10512;DHT22;5304;48.604;2.096;2024-02-21T04:57:50;6.70;99.90
10512;DHT22;5304;48.604;2.096;2024-02-21T05:00:34;6.70;99.90
10512;DHT22;5304;48.604;2.096;2024-02-21T05:03:18;6.70;99.90
10512;DHT22;5304;48.604;2.096;2024-02-21T05:06:03;6.70;99.90
10512;DHT22;5304;48.604;2.096;2024-02-21T05:08:47;6.70;99.90
10512;DHT22;5304;48.604;2.096;2024-02-21T05:11:32;6.70;99.90
10512;DHT22;5304;48.604;2.096;2024-02-21T05:14:16;6.60;99.90
10512;DHT22;5304;48.604;2.096;2024-02-21T05:17:00;6.60;99.90
10512;DHT22;5304;48.604;2.096;2024-02-21T05:19:44;6.60;99.90
10512;DHT22;5304;48.604;2.096;2024-02-21T05:22:29;6.60;99.90
10512;DHT22;5304;48.604;2.096;2024-02-21T05:25:13;6.60;99.90
10512;DHT22;5304;48.604;2.096;2024-02-21T05:27:58;6.60;99.90
10512;DHT22;5304;48.604;2.096;2024-02-21T05:30:46;6.60;99.90
10512;DHT22;5304;48.604;2.096;2024-02-21T05:33:30;6.60;99.90
10512;DHT22;5304;48.604;2.096;2024-02-21T05:36:14;6.60;99.90
10512;DHT22;5304;48.604;2.096;2024-02-21T05:38:58;6.60;99.90
10512;DHT22;5304;48.604;2.096;2024-02-21T05:41:42;6.60;99.90
10512;DHT22;5304;48.604;2.096;2024-02-21T05:44:27;6.60;99.90
10512;DHT22;5304;48.604;2.096;2024-02-21T05:47:12;6.60;99.90
10512;DHT22;5304;48.604;2.096;2024-02-21T05:49:59;6.60;99.90
10512;DHT22;5304;48.604;2.096;2024-02-21T05:52:44;6.60;99.90
10512;DHT22;5304;48.604;2.096;2024-02-21T05:55:28;6.60;99.90
10512;DHT22;5304;48.604;2.096;2024-02-21T05:58:12;6.60;99.90
10512;DHT22;5304;48.604;2.096;2024-02-21T06:00:57;6.50;99.90
10512;DHT22;5304;48.604;2.096;2024-02-21T06:03:41;6.50;99.90
10512;DHT22;5304;48.604;2.096;2024-02-21T06:06:25;6.50;99.90
10512;DHT22;5304;48.604;2.096;2024-02-21T06:09:09;6.40;99.90
10512;DHT22;5304;48.604;2.096;2024-02-21T06:11:54;6.50;99.90
10512;DHT22;5304;48.604;2.096;2024-02-21T06:14:38;6.50;99.90
10512;DHT22;5304;48.604;2.096;2024-02-21T06:17:22;6.40;99.90
10512;DHT22;5304;48.604;2.096;2024-02-21T06:20:07;6.40;99.90
10512;DHT22;5304;48.604;2.096;2024-02-21T06:22:52;6.40;99.90
10512;DHT22;5304;48.604;2.096;2024-02-21T06:25:37;6.40;99.90
10512;DHT22;5304;48.604;2.096;2024-02-21T06:28:22;6.30;99.90
10512;DHT22;5304;48.604;2.096;2024-02-21T06:31:06;6.30;99.90
10512;DHT22;5304;48.604;2.096;2024-02-21T06:33:51;6.30;99.90
10512;DHT22;5304;48.604;2.096;2024-02-21T06:36:35;6.30;99.90
10512;DHT22;5304;48.604;2.096;2024-02-21T06:39:20;6.30;99.90
10512;DHT22;5304;48.604;2.096;2024-02-21T06:42:07;6.30;99.90
10512;DHT22;5304;48.604;2.096;2024-02-21T06:44:52;6.30;99.90
10512;DHT22;5304;48.604;2.096;2024-02-21T06:47:36;6.30;99.90
10512;DHT22;5304;48.604;2.096;2024-02-21T06:50:21;6.30;99.90
10512;DHT22;5304;48.604;2.096;2024-02-21T06:53:05;6.30;99.90
10512;DHT22;5304;48.604;2.096;2024-02-21T06:55:49;6.40;99.90
10512;DHT22;5304;48.604;2.096;2024-02-21T06:58:33;6.40;99.90
10512;DHT22;5304;48.604;2.096;2024-02-21T07:01:18;6.40;99.90
10512;DHT22;5304;48.604;2.096;2024-02-21T07:04:02;6.40;99.90
10512;DHT22;5304;48.604;2.096;2024-02-21T07:06:47;6.50;99.90
10512;DHT22;5304;48.604;2.096;2024-02-21T07:09:31;6.50;99.90
10512;DHT22;5304;48.604;2.096;2024-02-21T07:12:16;6.50;99.90
10512;DHT22;5304;48.604;2.096;2024-02-21T07:15:00;6.70;99.90
10512;DHT22;5304;48.604;2.096;2024-02-21T07:17:44;6.70;99.90
10512;DHT22;5304;48.604;2.096;2024-02-21T07:20:28;6.70;99.90
10512;DHT22;5304;48.604;2.096;2024-02-21T07:23:13;6.80;99.90
10512;DHT22;5304;48.604;2.096;2024-02-21T07:25:57;6.80;99.90
10512;DHT22;5304;48.604;2.096;2024-02-21T07:28:42;6.80;99.90
10512;DHT22;5304;48.604;2.096;2024-02-21T07:31:26;6.80;99.90
10512;DHT22;5304;48.604;2.096;2024-02-21T07:34:11;6.90;99.90
10512;DHT22;5304;48.604;2.096;2024-02-21T07:36:55;6.90;99.90
10512;DHT22;5304;48.604;2.096;2024-02-21T07:39:40;6.90;99.90
10512;DHT22;5304;48.604;2.096;2024-02-21T07:42:24;7.10;99.90
10512;DHT22;5304;48.604;2.096;2024-02-21T07:45:09;7.10;99.90
10512;DHT22;5304;48.604;2.096;2024-02-21T07:47:54;7.10;99.90
10512;DHT22;5304;48.604;2.096;2024-02-21T07:50:38;7.20;99.90
10512;DHT22;5304;48.604;2.096;2024-02-21T07:53:22;7.20;99.90
10512;DHT22;5304;48.604;2.096;2024-02-21T07:56:07;7.30;99.90
10512;DHT22;5304;48.604;2.096;2024-02-21T07:58:51;7.20;99.90
10512;DHT22;5304;48.604;2.096;2024-02-21T08:01:35;7.40;99.90
10512;DHT22;5304;48.604;2.096;2024-02-21T08:04:19;7.40;99.90
10512;DHT22;5304;48.604;2.096;2024-02-21T08:07:03;7.40;99.90
10512;DHT22;5304;48.604;2.096;2024-02-21T08:09:47;7.40;99.90
10512;DHT22;5304;48.604;2.096;2024-02-21T08:12:32;7.40;99.90
10512;DHT22;5304;48.604;2.096;2024-02-21T08:15:17;7.40;99.90
10512;DHT22;5304;48.604;2.096;2024-02-21T08:18:03;7.30;99.90
10512;DHT22;5304;48.604;2.096;2024-02-21T08:20:47;7.30;99.90
10512;DHT22;5304;48.604;2.096;2024-02-21T08:23:32;7.30;99.90
10512;DHT22;5304;48.604;2.096;2024-02-21T08:26:16;7.40;99.90
10512;DHT22;5304;48.604;2.096;2024-02-21T08:29:00;7.40;99.90
10512;DHT22;5304;48.604;2.096;2024-02-21T08:31:45;7.40;99.90
10512;DHT22;5304;48.604;2.096;2024-02-21T08:34:29;7.50;99.90
10512;DHT22;5304;48.604;2.096;2024-02-21T08:37:18;7.40;99.90
10512;DHT22;5304;48.604;2.096;2024-02-21T08:40:03;7.40;99.90
10512;DHT22;5304;48.604;2.096;2024-02-21T08:42:52;7.40;99.90
10512;DHT22;5304;48.604;2.096;2024-02-21T08:45:37;7.40;99.90
10512;DHT22;5304;48.604;2.096;2024-02-21T08:48:22;7.50;99.90
10512;DHT22;5304;48.604;2.096;2024-02-21T08:51:06;7.60;99.90
10512;DHT22;5304;48.604;2.096;2024-02-21T08:53:50;7.50;99.90
10512;DHT22;5304;48.604;2.096;2024-02-21T08:56:35;7.60;99.90
10512;DHT22;5304;48.604;2.096;2024-02-21T08:59:20;7.60;99.90
10512;DHT22;5304;48.604;2.096;2024-02-21T09:02:04;7.70;99.90
10512;DHT22;5304;48.604;2.096;2024-02-21T09:04:49;7.70;99.90
10512;DHT22;5304;48.604;2.096;2024-02-21T09:07:33;7.80;99.90
10512;DHT22;5304;48.604;2.096;2024-02-21T09:10:17;7.80;99.90
10512;DHT22;5304;48.604;2.096;2024-02-21T09:13:01;7.80;99.90
10512;DHT22;5304;48.604;2.096;2024-02-21T09:15:48;7.90;99.90
10512;DHT22;5304;48.604;2.096;2024-02-21T09:18:33;7.90;99.90
10512;DHT22;5304;48.604;2.096;2024-02-21T09:21:17;8.10;99.90
10512;DHT22;5304;48.604;2.096;2024-02-21T09:24:02;8.10;99.90
10512;DHT22;5304;48.604;2.096;2024-02-21T09:26:47;8.10;99.90
10512;DHT22;5304;48.604;2.096;2024-02-21T09:29:32;8.10;99.90
10512;DHT22;5304;48.604;2.096;2024-02-21T09:32:17;8.20;99.90
10512;DHT22;5304;48.604;2.096;2024-02-21T09:35:03;8.30;99.90
10512;DHT22;5304;48.604;2.096;2024-02-21T09:37:49;8.30;99.90
10512;DHT22;5304;48.604;2.096;2024-02-21T09:40:33;8.30;99.90
10512;DHT22;5304;48.604;2.096;2024-02-21T09:43:22;8.30;99.90
10512;DHT22;5304;48.604;2.096;2024-02-21T09:46:07;8.30;99.90
10512;DHT22;5304;48.604;2.096;2024-02-21T09:51:57;8.40;99.90
10512;DHT22;5304;48.604;2.096;2024-02-21T09:54:43;8.60;99.90
10512;DHT22;5304;48.604;2.096;2024-02-21T09:57:28;8.50;99.90
10512;DHT22;5304;48.604;2.096;2024-02-21T10:00:14;8.60;99.90
10512;DHT22;5304;48.604;2.096;2024-02-21T10:03:05;8.60;99.90
10512;DHT22;5304;48.604;2.096;2024-02-21T10:05:51;8.70;99.90
10512;DHT22;5304;48.604;2.096;2024-02-21T10:08:36;8.80;99.90
10512;DHT22;5304;48.604;2.096;2024-02-21T10:11:24;8.80;99.90
10512;DHT22;5304;48.604;2.096;2024-02-21T10:14:08;9.00;99.90
10512;DHT22;5304;48.604;2.096;2024-02-21T10:16:58;9.00;99.90
10512;DHT22;5304;48.604;2.096;2024-02-21T10:19:46;9.10;99.90
10512;DHT22;5304;48.604;2.096;2024-02-21T10:22:31;9.20;99.90
10512;DHT22;5304;48.604;2.096;2024-02-21T10:25:20;9.20;99.90
10512;DHT22;5304;48.604;2.096;2024-02-21T10:28:05;9.30;99.90
10512;DHT22;5304;48.604;2.096;2024-02-21T10:30:50;9.30;99.90
10512;DHT22;5304;48.604;2.096;2024-02-21T10:33:35;9.40;99.90
10512;DHT22;5304;48.604;2.096;2024-02-21T10:36:20;9.50;99.90
10512;DHT22;5304;48.604;2.096;2024-02-21T10:39:04;9.50;99.90
10512;DHT22;5304;48.604;2.096;2024-02-21T10:41:48;9.50;99.90
10512;DHT22;5304;48.604;2.096;2024-02-21T10:44:35;9.50;99.90
10512;DHT22;5304;48.604;2.096;2024-02-21T10:47:22;9.40;99.90
10512;DHT22;5304;48.604;2.096;2024-02-21T10:50:07;9.40;99.90
10512;DHT22;5304;48.604;2.096;2024-02-21T10:53:24;9.50;99.90
10512;DHT22;5304;48.604;2.096;2024-02-21T10:59:13;9.60;99.90
10512;DHT22;5304;48.604;2.096;2024-02-21T11:01:57;9.60;99.90
10512;DHT22;5304;48.604;2.096;2024-02-21T11:04:42;9.70;99.90
10512;DHT22;5304;48.604;2.096;2024-02-21T11:07:27;9.60;99.90
10512;DHT22;5304;48.604;2.096;2024-02-21T11:10:24;9.80;99.90
10512;DHT22;5304;48.604;2.096;2024-02-21T11:13:10;9.70;99.90
10512;DHT22;5304;48.604;2.096;2024-02-21T11:15:54;9.70;99.90
10512;DHT22;5304;48.604;2.096;2024-02-21T11:18:38;9.70;99.90
10512;DHT22;5304;48.604;2.096;2024-02-21T11:21:33;9.80;99.90
10512;DHT22;5304;48.604;2.096;2024-02-21T11:24:32;9.80;99.90
10512;DHT22;5304;48.604;2.096;2024-02-21T11:27:21;9.90;99.90
10512;DHT22;5304;48.604;2.096;2024-02-21T11:30:06;9.80;99.90
10512;DHT22;5304;48.604;2.096;2024-02-21T11:32:50;9.80;99.90
10512;DHT22;5304;48.604;2.096;2024-02-21T11:35:42;9.80;99.90
10512;DHT22;5304;48.604;2.096;2024-02-21T11:38:27;9.90;99.90
10512;DHT22;5304;48.604;2.096;2024-02-21T11:41:11;10.00;99.90
10512;DHT22;5304;48.604;2.096;2024-02-21T11:43:55;10.10;99.90
10512;DHT22;5304;48.604;2.096;2024-02-21T11:46:40;10.10;99.90
10512;DHT22;5304;48.604;2.096;2024-02-21T11:49:30;10.00;99.90
10512;DHT22;5304;48.604;2.096;2024-02-21T11:52:15;10.10;99.90
10512;DHT22;5304;48.604;2.096;2024-02-21T11:54:59;10.10;99.90
10512;DHT22;5304;48.604;2.096;2024-02-21T11:57:49;10.20;99.90
10512;DHT22;5304;48.604;2.096;2024-02-21T12:00:33;10.20;99.90
10512;DHT22;5304;48.604;2.096;2024-02-21T12:03:20;10.20;99.90
10512;DHT22;5304;48.604;2.096;2024-02-21T12:06:06;10.30;99.90
10512;DHT22;5304;48.604;2.096;2024-02-21T12:08:51;10.30;99.90
10512;DHT22;5304;48.604;2.096;2024-02-21T12:11:36;10.30;99.90
10512;DHT22;5304;48.604;2.096;2024-02-21T12:14:21;10.20;99.90
10512;DHT22;5304;48.604;2.096;2024-02-21T12:17:06;10.40;99.90
10512;DHT22;5304;48.604;2.096;2024-02-21T12:19:51;10.30;99.90
10512;DHT22;5304;48.604;2.096;2024-02-21T12:22:35;10.40;99.90
10512;DHT22;5304;48.604;2.096;2024-02-21T12:25:21;10.30;99.90
10512;DHT22;5304;48.604;2.096;2024-02-21T12:28:10;10.30;99.90
10512;DHT22;5304;48.604;2.096;2024-02-21T12:30:54;10.30;99.90
10512;DHT22;5304;48.604;2.096;2024-02-21T12:33:38;10.30;99.90
10512;DHT22;5304;48.604;2.096;2024-02-21T12:36:23;10.30;99.90
10512;DHT22;5304;48.604;2.096;2024-02-21T12:39:08;10.30;99.90
10512;DHT22;5304;48.604;2.096;2024-02-21T12:41:52;10.40;99.90
10512;DHT22;5304;48.604;2.096;2024-02-21T12:44:37;10.20;99.90
10512;DHT22;5304;48.604;2.096;2024-02-21T12:47:21;10.30;99.90
10512;DHT22;5304;48.604;2.096;2024-02-21T12:50:07;10.10;99.90
10512;DHT22;5304;48.604;2.096;2024-02-21T12:52:52;10.10;99.90
10512;DHT22;5304;48.604;2.096;2024-02-21T12:55:36;10.10;99.90
10512;DHT22;5304;48.604;2.096;2024-02-21T12:58:22;10.10;99.90
10512;DHT22;5304;48.604;2.096;2024-02-21T13:01:06;10.10;99.90
10512;DHT22;5304;48.604;2.096;2024-02-21T13:03:50;10.20;99.90
10512;DHT22;5304;48.604;2.096;2024-02-21T13:06:34;10.10;99.90
10512;DHT22;5304;48.604;2.096;2024-02-21T13:09:20;9.90;99.90
10512;DHT22;5304;48.604;2.096;2024-02-21T13:12:05;9.90;99.90
10512;DHT22;5304;48.604;2.096;2024-02-21T13:14:49;9.80;99.90
10512;DHT22;5304;48.604;2.096;2024-02-21T13:17:33;9.70;99.90
10512;DHT22;5304;48.604;2.096;2024-02-21T13:20:18;9.70;99.90
10512;DHT22;5304;48.604;2.096;2024-02-21T13:23:02;9.70;99.90
10512;DHT22;5304;48.604;2.096;2024-02-21T13:25:47;9.60;99.90
10512;DHT22;5304;48.604;2.096;2024-02-21T13:28:31;9.60;99.90
10512;DHT22;5304;48.604;2.096;2024-02-21T13:31:16;9.50;99.90
10512;DHT22;5304;48.604;2.096;2024-02-21T13:34:00;9.40;99.90
10512;DHT22;5304;48.604;2.096;2024-02-21T13:36:44;9.50;99.90
10512;DHT22;5304;48.604;2.096;2024-02-21T13:39:29;9.40;99.90
10512;DHT22;5304;48.604;2.096;2024-02-21T13:42:13;9.40;99.90
10512;DHT22;5304;48.604;2.096;2024-02-21T13:44:57;9.30;99.90
10512;DHT22;5304;48.604;2.096;2024-02-21T13:47:42;9.30;99.90
10512;DHT22;5304;48.604;2.096;2024-02-21T13:50:30;9.30;99.90
10512;DHT22;5304;48.604;2.096;2024-02-21T13:53:15;9.20;99.90
10512;DHT22;5304;48.604;2.096;2024-02-21T13:56:02;9.20;99.90
10512;DHT22;5304;48.604;2.096;2024-02-21T13:58:46;9.20;99.90
10512;DHT22;5304;48.604;2.096;2024-02-21T14:01:31;9.10;99.90
10512;DHT22;5304;48.604;2.096;2024-02-21T14:04:19;9.10;99.90
10512;DHT22;5304;48.604;2.096;2024-02-21T14:07:04;9.10;99.90
10512;DHT22;5304;48.604;2.096;2024-02-21T14:09:48;9.10;99.90
10512;DHT22;5304;48.604;2.096;2024-02-21T14:12:32;9.20;99.90
10512;DHT22;5304;48.604;2.096;2024-02-21T14:15:17;9.00;99.90
10512;DHT22;5304;48.604;2.096;2024-02-21T14:18:02;9.10;99.90
10512;DHT22;5304;48.604;2.096;2024-02-21T14:20:46;9.10;99.90
10512;DHT22;5304;48.604;2.096;2024-02-21T14:23:31;9.00;99.90
10512;DHT22;5304;48.604;2.096;2024-02-21T14:26:17;9.10;99.90
10512;DHT22;5304;48.604;2.096;2024-02-21T14:29:01;9.10;99.90
10512;DHT22;5304;48.604;2.096;2024-02-21T14:31:47;9.10;99.90
10512;DHT22;5304;48.604;2.096;2024-02-21T14:34:31;9.10;99.90
10512;DHT22;5304;48.604;2.096;2024-02-21T14:37:16;9.00;99.90
10512;DHT22;5304;48.604;2.096;2024-02-21T14:40:00;9.10;99.90
10512;DHT22;5304;48.604;2.096;2024-02-21T14:42:47;9.00;99.90
10512;DHT22;5304;48.604;2.096;2024-02-21T14:45:31;9.00;99.90
10512;DHT22;5304;48.604;2.096;2024-02-21T14:48:15;9.00;99.90
10512;DHT22;5304;48.604;2.096;2024-02-21T14:51:00;9.00;99.90
10512;DHT22;5304;48.604;2.096;2024-02-21T14:53:44;9.10;99.90
10512;DHT22;5304;48.604;2.096;2024-02-21T14:56:28;9.00;99.90
10512;DHT22;5304;48.604;2.096;2024-02-21T14:59:13;9.00;99.90
10512;DHT22;5304;48.604;2.096;2024-02-21T15:01:57;8.90;99.90
10512;DHT22;5304;48.604;2.096;2024-02-21T15:04:41;9.10;99.90
10512;DHT22;5304;48.604;2.096;2024-02-21T15:07:25;8.90;99.90
10512;DHT22;5304;48.604;2.096;2024-02-21T15:10:10;9.00;99.90
10512;DHT22;5304;48.604;2.096;2024-02-21T15:12:55;9.00;99.90
10512;DHT22;5304;48.604;2.096;2024-02-21T15:15:40;9.00;99.90
10512;DHT22;5304;48.604;2.096;2024-02-21T15:18:24;8.90;99.90
10512;DHT22;5304;48.604;2.096;2024-02-21T15:21:08;8.90;99.90
10512;DHT22;5304;48.604;2.096;2024-02-21T15:23:57;8.90;99.90
10512;DHT22;5304;48.604;2.096;2024-02-21T15:26:43;8.90;99.90
10512;DHT22;5304;48.604;2.096;2024-02-21T15:29:27;8.90;99.90
10512;DHT22;5304;48.604;2.096;2024-02-21T15:32:11;8.90;99.90
10512;DHT22;5304;48.604;2.096;2024-02-21T15:34:56;8.90;99.90
10512;DHT22;5304;48.604;2.096;2024-02-21T15:37:40;9.00;99.90
10512;DHT22;5304;48.604;2.096;2024-02-21T15:40:25;8.90;99.90
10512;DHT22;5304;48.604;2.096;2024-02-21T15:43:09;9.00;99.90
10512;DHT22;5304;48.604;2.096;2024-02-21T15:45:53;9.00;99.90
10512;DHT22;5304;48.604;2.096;2024-02-21T15:48:37;9.00;99.90
10512;DHT22;5304;48.604;2.096;2024-02-21T15:51:22;9.00;99.90
10512;DHT22;5304;48.604;2.096;2024-02-21T15:54:08;9.00;99.90
10512;DHT22;5304;48.604;2.096;2024-02-21T15:56:55;9.00;99.90
10512;DHT22;5304;48.604;2.096;2024-02-21T15:59:40;9.10;99.90
10512;DHT22;5304;48.604;2.096;2024-02-21T16:02:24;9.00;99.90
10512;DHT22;5304;48.604;2.096;2024-02-21T16:05:09;9.00;99.90
10512;DHT22;5304;48.604;2.096;2024-02-21T16:07:53;9.00;99.90
10512;DHT22;5304;48.604;2.096;2024-02-21T16:10:38;9.00;99.90
10512;DHT22;5304;48.604;2.096;2024-02-21T16:13:22;9.00;99.90
10512;DHT22;5304;48.604;2.096;2024-02-21T16:16:08;9.00;99.90
10512;DHT22;5304;48.604;2.096;2024-02-21T16:18:52;9.10;99.90
10512;DHT22;5304;48.604;2.096;2024-02-21T16:21:37;9.10;99.90
10512;DHT22;5304;48.604;2.096;2024-02-21T16:24:21;9.10;99.90
10512;DHT22;5304;48.604;2.096;2024-02-21T16:27:05;9.10;99.90
10512;DHT22;5304;48.604;2.096;2024-02-21T16:29:53;9.20;99.90
10512;DHT22;5304;48.604;2.096;2024-02-21T16:32:37;9.20;99.90
10512;DHT22;5304;48.604;2.096;2024-02-21T16:35:23;9.10;99.90
10512;DHT22;5304;48.604;2.096;2024-02-21T16:38:08;9.10;99.90
10512;DHT22;5304;48.604;2.096;2024-02-21T16:40:53;9.20;99.90
10512;DHT22;5304;48.604;2.096;2024-02-21T16:43:37;9.20;99.90
10512;DHT22;5304;48.604;2.096;2024-02-21T16:46:21;9.20;99.90
10512;DHT22;5304;48.604;2.096;2024-02-21T16:49:06;9.20;99.90
10512;DHT22;5304;48.604;2.096;2024-02-21T16:51:50;9.20;99.90
10512;DHT22;5304;48.604;2.096;2024-02-21T16:54:35;9.30;99.90
10512;DHT22;5304;48.604;2.096;2024-02-21T16:57:20;9.30;99.90
10512;DHT22;5304;48.604;2.096;2024-02-21T17:00:05;9.30;99.90
10512;DHT22;5304;48.604;2.096;2024-02-21T17:02:55;9.30;99.90
10512;DHT22;5304;48.604;2.096;2024-02-21T17:05:39;9.30;99.90
10512;DHT22;5304;48.604;2.096;2024-02-21T17:08:23;9.30;99.90
10512;DHT22;5304;48.604;2.096;2024-02-21T17:11:07;9.40;99.90
10512;DHT22;5304;48.604;2.096;2024-02-21T17:13:52;9.30;99.90
10512;DHT22;5304;48.604;2.096;2024-02-21T17:16:36;9.40;99.90
10512;DHT22;5304;48.604;2.096;2024-02-21T17:19:21;9.30;99.90
10512;DHT22;5304;48.604;2.096;2024-02-21T17:22:05;9.30;99.90
10512;DHT22;5304;48.604;2.096;2024-02-21T17:24:50;9.40;99.90
10512;DHT22;5304;48.604;2.096;2024-02-21T17:27:34;9.30;99.90
10512;DHT22;5304;48.604;2.096;2024-02-21T17:30:18;9.40;99.90
10512;DHT22;5304;48.604;2.096;2024-02-21T17:33:04;9.40;99.90
10512;DHT22;5304;48.604;2.096;2024-02-21T17:35:51;9.40;99.90
10512;DHT22;5304;48.604;2.096;2024-02-21T17:38:35;9.40;99.90
10512;DHT22;5304;48.604;2.096;2024-02-21T17:41:19;9.30;99.90
10512;DHT22;5304;48.604;2.096;2024-02-21T17:44:04;9.40;99.90
10512;DHT22;5304;48.604;2.096;2024-02-21T17:46:48;9.40;99.90
10512;DHT22;5304;48.604;2.096;2024-02-21T17:49:32;9.30;99.90
10512;DHT22;5304;48.604;2.096;2024-02-21T17:52:17;9.30;99.90
10512;DHT22;5304;48.604;2.096;2024-02-21T17:55:03;9.40;99.90
10512;DHT22;5304;48.604;2.096;2024-02-21T17:57:49;9.30;99.90
10512;DHT22;5304;48.604;2.096;2024-02-21T18:00:33;9.40;99.90